sensor_id;sensor_type;location;lat;lon;timestamp;pressure;altitude;pressure_sealevel;temperature;humidity
80410;BME280;69746;45.596;10.154;2023-06-26T00:01:41;99492.09;;;28.24;41.39
80410;BME280;69746;45.596;10.154;2023-06-26T00:04:08;99492.09;;;28.24;41.41
80410;BME280;69746;45.596;10.154;2023-06-26T00:06:42;99495.72;;;28.24;41.20
80410;BME280;69746;45.596;10.154;2023-06-26T00:09:08;99497.69;;;28.24;41.18
80410;BME280;69746;45.596;10.154;2023-06-26T00:11:34;99504.13;;;28.24;41.46
80410;BME280;69746;45.596;10.154;2023-06-26T00:14:01;99503.31;;;28.24;41.44
80410;BME280;69746;45.596;10.154;2023-06-26T00:16:27;99497.69;;;28.24;41.37
80410;BME280;69746;45.596;10.154;2023-06-26T00:18:56;99501.31;;;28.24;41.24
80410;BME280;69746;45.596;10.154;2023-06-26T00:21:22;99498.50;;;28.24;41.30
80410;BME280;69746;45.596;10.154;2023-06-26T00:23:48;99501.69;;;28.23;41.32
80410;BME280;69746;45.596;10.154;2023-06-26T00:26:13;99498.50;;;28.24;41.34
80410;BME280;69746;45.596;10.154;2023-06-26T00:28:39;99495.72;;;28.24;41.58
80410;BME280;69746;45.596;10.154;2023-06-26T00:31:08;99498.50;;;28.24;41.45
80410;BME280;69746;45.596;10.154;2023-06-26T00:33:34;99492.09;;;28.24;41.35
80410;BME280;69746;45.596;10.154;2023-06-26T00:36:00;99503.31;;;28.24;41.33
80410;BME280;69746;45.596;10.154;2023-06-26T00:38:26;99494.09;;;28.23;41.38
80410;BME280;69746;45.596;10.154;2023-06-26T00:40:53;99494.91;;;28.24;41.51
80410;BME280;69746;45.596;10.154;2023-06-26T00:43:20;99500.50;;;28.24;41.37
80410;BME280;69746;45.596;10.154;2023-06-26T00:45:47;99498.88;;;28.23;41.66
80410;BME280;69746;45.596;10.154;2023-06-26T00:48:13;99506.13;;;28.24;41.66
80410;BME280;69746;45.596;10.154;2023-06-26T00:50:41;99496.44;;;28.21;41.46
80410;BME280;69746;45.596;10.154;2023-06-26T00:53:09;99503.31;;;28.24;41.42
80410;BME280;69746;45.596;10.154;2023-06-26T00:55:36;99506.94;;;28.24;41.52
80410;BME280;69746;45.596;10.154;2023-06-26T00:58:05;99500.50;;;28.24;41.58
80410;BME280;69746;45.596;10.154;2023-06-26T01:00:30;99503.31;;;28.24;41.61
80410;BME280;69746;45.596;10.154;2023-06-26T01:02:56;99501.69;;;28.23;41.49
80410;BME280;69746;45.596;10.154;2023-06-26T01:05:27;99500.50;;;28.24;41.52
80410;BME280;69746;45.596;10.154;2023-06-26T01:07:57;99499.69;;;28.23;41.52
80410;BME280;69746;45.596;10.154;2023-06-26T01:10:24;99509.75;;;28.24;41.58
80410;BME280;69746;45.596;10.154;2023-06-26T01:12:53;99508.09;;;28.23;41.42
80410;BME280;69746;45.596;10.154;2023-06-26T01:15:19;99502.50;;;28.23;41.59
80410;BME280;69746;45.596;10.154;2023-06-26T01:17:45;99501.69;;;28.23;41.61
80410;BME280;69746;45.596;10.154;2023-06-26T01:20:15;99506.13;;;28.24;41.39
80410;BME280;69746;45.596;10.154;2023-06-26T01:23:07;99509.75;;;28.24;41.45
80410;BME280;69746;45.596;10.154;2023-06-26T01:28:30;99498.88;;;28.23;41.63
80410;BME280;69746;45.596;10.154;2023-06-26T01:31:00;99502.50;;;28.23;41.72
80410;BME280;69746;45.596;10.154;2023-06-26T01:33:28;99496.81;;;28.19;41.71
80410;BME280;69746;45.596;10.154;2023-06-26T01:35:54;99492.44;;;28.22;41.57
80410;BME280;69746;45.596;10.154;2023-06-26T01:38:21;99492.44;;;28.22;41.67
80410;BME280;69746;45.596;10.154;2023-06-26T01:40:49;99489.66;;;28.22;41.52
80410;BME280;69746;45.596;10.154;2023-06-26T01:45:50;99494.44;;;28.21;41.57
80410;BME280;69746;45.596;10.154;2023-06-26T01:48:22;99489.19;;;28.20;41.69
80410;BME280;69746;45.596;10.154;2023-06-26T01:50:51;99484.03;;;28.22;41.54
80410;BME280;69746;45.596;10.154;2023-06-26T01:53:21;99494.44;;;28.21;41.68
80410;BME280;69746;45.596;10.154;2023-06-26T01:56:03;99500.50;;;28.24;41.58
80410;BME280;69746;45.596;10.154;2023-06-26T01:58:32;99491.63;;;28.21;41.67
80410;BME280;69746;45.596;10.154;2023-06-26T02:00:59;99484.84;;;28.23;41.67
80410;BME280;69746;45.596;10.154;2023-06-26T02:03:25;99490.47;;;28.23;41.66
80410;BME280;69746;45.596;10.154;2023-06-26T02:05:52;99488.84;;;28.21;41.62
80410;BME280;69746;45.596;10.154;2023-06-26T02:08:17;99493.28;;;28.23;41.59
80410;BME280;69746;45.596;10.154;2023-06-26T02:10:46;99492.44;;;28.22;41.78
80410;BME280;69746;45.596;10.154;2023-06-26T02:13:14;99492.81;;;28.20;41.52
80410;BME280;69746;45.596;10.154;2023-06-26T02:15:40;99489.66;;;28.22;41.57
80410;BME280;69746;45.596;10.154;2023-06-26T02:18:06;99491.63;;;28.21;41.81
80410;BME280;69746;45.596;10.154;2023-06-26T02:20:32;99498.06;;;28.22;41.57
80410;BME280;69746;45.596;10.154;2023-06-26T02:22:59;99497.25;;;28.21;41.63
80410;BME280;69746;45.596;10.154;2023-06-26T02:25:27;99498.06;;;28.22;41.59
80410;BME280;69746;45.596;10.154;2023-06-26T02:27:52;99496.88;;;28.23;41.58
80410;BME280;69746;45.596;10.154;2023-06-26T02:30:20;99495.25;;;28.22;41.60
80410;BME280;69746;45.596;10.154;2023-06-26T02:32:46;99498.88;;;28.23;41.76
80410;BME280;69746;45.596;10.154;2023-06-26T02:35:12;99499.59;;;28.19;41.79
80410;BME280;69746;45.596;10.154;2023-06-26T02:37:38;99492.44;;;28.22;41.71
80410;BME280;69746;45.596;10.154;2023-06-26T02:40:04;99498.88;;;28.23;41.53
80410;BME280;69746;45.596;10.154;2023-06-26T02:42:31;99498.06;;;28.22;41.79
80410;BME280;69746;45.596;10.154;2023-06-26T02:44:57;99503.69;;;28.22;41.59
80410;BME280;69746;45.596;10.154;2023-06-26T02:47:23;99488.03;;;28.21;41.55
80410;BME280;69746;45.596;10.154;2023-06-26T02:49:51;99493.28;;;28.23;41.74
80410;BME280;69746;45.596;10.154;2023-06-26T02:52:17;99497.25;;;28.21;41.59
80410;BME280;69746;45.596;10.154;2023-06-26T02:54:45;99500.88;;;28.22;41.77
80410;BME280;69746;45.596;10.154;2023-06-26T02:57:11;99500.88;;;28.22;41.61
80410;BME280;69746;45.596;10.154;2023-06-26T02:59:38;99495.63;;;28.20;41.65
80410;BME280;69746;45.596;10.154;2023-06-26T03:02:05;99508.47;;;28.21;41.68
80410;BME280;69746;45.596;10.154;2023-06-26T03:04:30;99502.03;;;28.21;41.75
80410;BME280;69746;45.596;10.154;2023-06-26T03:06:56;99500.88;;;28.22;41.78
80410;BME280;69746;45.596;10.154;2023-06-26T03:09:25;99507.28;;;28.23;41.34
80410;BME280;69746;45.596;10.154;2023-06-26T03:11:51;99509.28;;;28.22;41.41
80410;BME280;69746;45.596;10.154;2023-06-26T03:14:18;99512.09;;;28.22;41.63
80410;BME280;69746;45.596;10.154;2023-06-26T03:16:44;99506.47;;;28.22;41.67
80410;BME280;69746;45.596;10.154;2023-06-26T03:19:10;99512.09;;;28.22;41.81
80410;BME280;69746;45.596;10.154;2023-06-26T03:21:36;99509.28;;;28.22;41.63
80410;BME280;69746;45.596;10.154;2023-06-26T03:24:02;99506.47;;;28.22;41.59
80410;BME280;69746;45.596;10.154;2023-06-26T03:26:27;99511.56;;;28.16;40.54
80410;BME280;69746;45.596;10.154;2023-06-26T03:28:54;99507.09;;;28.00;39.22
80410;BME280;69746;45.596;10.154;2023-06-26T03:31:22;99506.56;;;27.82;38.97
80410;BME280;69746;45.596;10.154;2023-06-26T03:33:48;99507.00;;;27.44;39.66
80410;BME280;69746;45.596;10.154;2023-06-26T03:36:15;99504.47;;;27.39;39.89
80410;BME280;69746;45.596;10.154;2023-06-26T03:38:41;99504.59;;;27.30;39.92
80410;BME280;69746;45.596;10.154;2023-06-26T03:41:07;99503.09;;;27.20;39.90
80410;BME280;69746;45.596;10.154;2023-06-26T03:43:33;99509.19;;;27.22;40.42
80410;BME280;69746;45.596;10.154;2023-06-26T03:46:00;99506.84;;;27.24;40.20
80410;BME280;69746;45.596;10.154;2023-06-26T03:48:26;99514.78;;;27.22;40.20
80410;BME280;69746;45.596;10.154;2023-06-26T03:50:53;99509.88;;;27.07;40.04
80410;BME280;69746;45.596;10.154;2023-06-26T03:53:19;99509.88;;;27.07;40.48
80410;BME280;69746;45.596;10.154;2023-06-26T03:55:44;99512.56;;;27.03;40.32
80410;BME280;69746;45.596;10.154;2023-06-26T03:58:11;99510.44;;;26.88;40.69
80410;BME280;69746;45.596;10.154;2023-06-26T04:00:37;99512.53;;;26.91;41.21
80410;BME280;69746;45.596;10.154;2023-06-26T04:03:06;99510.19;;;26.93;40.60
80410;BME280;69746;45.596;10.154;2023-06-26T04:05:32;99514.53;;;26.91;40.85
80410;BME280;69746;45.596;10.154;2023-06-26T04:07:58;99512.31;;;26.84;40.99
80410;BME280;69746;45.596;10.154;2023-06-26T04:10:24;99518.38;;;26.62;41.59
80410;BME280;69746;45.596;10.154;2023-06-26T04:12:50;99522.22;;;26.57;41.35
80410;BME280;69746;45.596;10.154;2023-06-26T04:15:15;99529.72;;;26.32;41.82
80410;BME280;69746;45.596;10.154;2023-06-26T04:17:42;99526.09;;;26.32;41.96
80410;BME280;69746;45.596;10.154;2023-06-26T04:20:09;99519.50;;;26.36;42.30
80410;BME280;69746;45.596;10.154;2023-06-26T04:22:35;99528.91;;;26.32;42.04
80410;BME280;69746;45.596;10.154;2023-06-26T04:25:03;99525.84;;;26.25;42.17
80410;BME280;69746;45.596;10.154;2023-06-26T04:27:29;99537.25;;;26.20;42.66
80410;BME280;69746;45.596;10.154;2023-06-26T04:29:55;99540.03;;;26.20;42.21
80410;BME280;69746;45.596;10.154;2023-06-26T04:32:21;99543.44;;;26.25;42.53
80410;BME280;69746;45.596;10.154;2023-06-26T04:34:47;99536.78;;;26.30;42.24
80410;BME280;69746;45.596;10.154;2023-06-26T04:37:14;99544.66;;;26.36;42.14
80410;BME280;69746;45.596;10.154;2023-06-26T04:39:42;99544.94;;;26.43;42.08
80410;BME280;69746;45.596;10.154;2023-06-26T04:42:09;99546.66;;;26.48;42.03
80410;BME280;69746;45.596;10.154;2023-06-26T04:44:38;99549.22;;;26.53;42.21
80410;BME280;69746;45.596;10.154;2023-06-26T04:47:07;99539.31;;;26.56;42.21
80410;BME280;69746;45.596;10.154;2023-06-26T04:49:34;99547.03;;;26.59;42.12
80410;BME280;69746;45.596;10.154;2023-06-26T04:52:00;99546.34;;;26.62;42.46
80410;BME280;69746;45.596;10.154;2023-06-26T04:54:26;99544.81;;;26.64;42.42
80410;BME280;69746;45.596;10.154;2023-06-26T04:56:53;99541.31;;;26.67;42.02
80410;BME280;69746;45.596;10.154;2023-06-26T04:59:20;99541.81;;;26.69;42.50
80410;BME280;69746;45.596;10.154;2023-06-26T05:01:49;99533.06;;;26.71;42.27
80410;BME280;69746;45.596;10.154;2023-06-26T05:04:15;99531.19;;;26.75;42.18
80410;BME280;69746;45.596;10.154;2023-06-26T05:06:41;99538.06;;;26.78;42.47
80410;BME280;69746;45.596;10.154;2023-06-26T05:09:07;99536.56;;;26.80;42.10
80410;BME280;69746;45.596;10.154;2023-06-26T05:11:33;99527.81;;;26.82;42.26
80410;BME280;69746;45.596;10.154;2023-06-26T05:14:02;99525.50;;;26.84;42.27
80410;BME280;69746;45.596;10.154;2023-06-26T05:16:28;99524.78;;;26.87;42.57
80410;BME280;69746;45.596;10.154;2023-06-26T05:18:54;99522.81;;;26.87;42.45
80410;BME280;69746;45.596;10.154;2023-06-26T05:21:20;99527.34;;;26.92;42.50
80410;BME280;69746;45.596;10.154;2023-06-26T05:23:47;99522.56;;;26.92;42.03
80410;BME280;69746;45.596;10.154;2023-06-26T05:26:14;99527.47;;;26.95;42.11
80410;BME280;69746;45.596;10.154;2023-06-26T05:28:40;99533.53;;;26.97;42.37
80410;BME280;69746;45.596;10.154;2023-06-26T05:31:07;99535.19;;;26.98;42.10
80410;BME280;69746;45.596;10.154;2023-06-26T05:33:35;99531.22;;;26.99;42.18
80410;BME280;69746;45.596;10.154;2023-06-26T05:36:04;99533.34;;;27.02;42.07
80410;BME280;69746;45.596;10.154;2023-06-26T05:38:34;99523.75;;;27.03;42.17
80410;BME280;69746;45.596;10.154;2023-06-26T05:41:01;99521.78;;;27.04;42.10
80410;BME280;69746;45.596;10.154;2023-06-26T05:43:27;99523.88;;;27.07;42.32
80410;BME280;69746;45.596;10.154;2023-06-26T05:45:53;99521.19;;;27.11;42.51
80410;BME280;69746;45.596;10.154;2023-06-26T05:48:21;99526.44;;;27.12;42.03
80410;BME280;69746;45.596;10.154;2023-06-26T05:50:48;99528.91;;;27.14;42.02
80410;BME280;69746;45.596;10.154;2023-06-26T05:53:17;99527.72;;;27.15;42.31
80410;BME280;69746;45.596;10.154;2023-06-26T05:55:44;99525.38;;;27.17;42.13
80410;BME280;69746;45.596;10.154;2023-06-26T05:58:11;99527.00;;;27.18;42.28
80410;BME280;69746;45.596;10.154;2023-06-26T06:00:39;99531.44;;;27.19;42.23
80410;BME280;69746;45.596;10.154;2023-06-26T06:03:06;99529.09;;;27.21;42.27
80410;BME280;69746;45.596;10.154;2023-06-26T06:05:32;99531.59;;;27.22;42.51
80410;BME280;69746;45.596;10.154;2023-06-26T06:07:58;99533.56;;;27.22;42.18
80410;BME280;69746;45.596;10.154;2023-06-26T06:10:24;99536.47;;;27.25;42.24
80410;BME280;69746;45.596;10.154;2023-06-26T06:12:50;99534.47;;;27.26;42.34
80410;BME280;69746;45.596;10.154;2023-06-26T06:15:17;99535.75;;;27.28;42.15
80410;BME280;69746;45.596;10.154;2023-06-26T06:17:43;99538.56;;;27.28;42.18
80410;BME280;69746;45.596;10.154;2023-06-26T06:20:10;99535.41;;;27.30;42.56
80410;BME280;69746;45.596;10.154;2023-06-26T06:22:37;99528.63;;;27.31;42.30
80410;BME280;69746;45.596;10.154;2023-06-26T06:25:03;99537.84;;;27.31;42.53
80410;BME280;69746;45.596;10.154;2023-06-26T06:27:32;99543.91;;;27.33;42.52
80410;BME280;69746;45.596;10.154;2023-06-26T06:29:58;99543.91;;;27.33;42.31
80410;BME280;69746;45.596;10.154;2023-06-26T06:32:30;99544.41;;;27.36;42.28
80410;BME280;69746;45.596;10.154;2023-06-26T06:34:56;99546.03;;;27.37;42.64
80410;BME280;69746;45.596;10.154;2023-06-26T06:37:22;99544.84;;;27.38;42.55
80410;BME280;69746;45.596;10.154;2023-06-26T06:39:48;99540.88;;;27.39;42.55
80410;BME280;69746;45.596;10.154;2023-06-26T06:42:14;99536.91;;;27.40;42.21
80410;BME280;69746;45.596;10.154;2023-06-26T06:44:41;99532.03;;;27.37;42.13
80410;BME280;69746;45.596;10.154;2023-06-26T06:47:07;99538.19;;;27.42;42.00
80410;BME280;69746;45.596;10.154;2023-06-26T06:49:33;99535.03;;;27.44;42.30
80410;BME280;69746;45.596;10.154;2023-06-26T06:51:59;99535.84;;;27.44;42.49
80410;BME280;69746;45.596;10.154;2023-06-26T06:54:27;99543.88;;;27.46;42.19
80410;BME280;69746;45.596;10.154;2023-06-26T06:57:00;99535.13;;;27.47;42.20
80410;BME280;69746;45.596;10.154;2023-06-26T06:59:26;99537.13;;;27.47;42.23
80410;BME280;69746;45.596;10.154;2023-06-26T07:01:52;99544.38;;;27.48;42.36
80410;BME280;69746;45.596;10.154;2023-06-26T07:04:21;99540.41;;;27.49;42.26
80410;BME280;69746;45.596;10.154;2023-06-26T07:06:47;99534.44;;;27.50;42.37
80410;BME280;69746;45.596;10.154;2023-06-26T07:09:18;99538.06;;;27.51;42.26
80410;BME280;69746;45.596;10.154;2023-06-26T07:11:43;99528.47;;;27.52;42.48
80410;BME280;69746;45.596;10.154;2023-06-26T07:14:10;99530.91;;;27.53;42.39
80410;BME280;69746;45.596;10.154;2023-06-26T07:16:42;99532.56;;;27.54;42.34
80410;BME280;69746;45.596;10.154;2023-06-26T07:19:08;99532.56;;;27.54;42.40
80410;BME280;69746;45.596;10.154;2023-06-26T07:21:34;99531.38;;;27.55;42.39
80410;BME280;69746;45.596;10.154;2023-06-26T07:24:00;99536.63;;;27.57;42.38
80410;BME280;69746;45.596;10.154;2023-06-26T07:26:26;99535.44;;;27.58;42.19
80410;BME280;69746;45.596;10.154;2023-06-26T07:28:52;99538.25;;;27.58;42.23
80410;BME280;69746;45.596;10.154;2023-06-26T07:31:20;99537.09;;;27.59;42.46
80410;BME280;69746;45.596;10.154;2023-06-26T07:33:45;99533.47;;;27.58;42.37
80410;BME280;69746;45.596;10.154;2023-06-26T07:36:11;99542.31;;;27.60;42.07
80410;BME280;69746;45.596;10.154;2023-06-26T07:38:38;99540.38;;;27.61;42.08
80410;BME280;69746;45.596;10.154;2023-06-26T07:41:07;99544.81;;;27.62;42.29
80410;BME280;69746;45.596;10.154;2023-06-26T07:43:33;99537.22;;;27.62;42.10
80410;BME280;69746;45.596;10.154;2023-06-26T07:45:59;99534.09;;;27.64;41.66
80410;BME280;69746;45.596;10.154;2023-06-26T07:48:25;99536.88;;;27.64;41.78
80410;BME280;69746;45.596;10.154;2023-06-26T07:50:51;99531.28;;;27.64;41.45
80410;BME280;69746;45.596;10.154;2023-06-26T07:53:17;99530.09;;;27.65;41.41
80410;BME280;69746;45.596;10.154;2023-06-26T07:55:43;99530.91;;;27.66;41.42
80410;BME280;69746;45.596;10.154;2023-06-26T07:58:09;99535.72;;;27.65;41.14
80410;BME280;69746;45.596;10.154;2023-06-26T08:00:37;99541.78;;;27.67;40.97
80410;BME280;69746;45.596;10.154;2023-06-26T08:03:03;99535.81;;;27.69;41.11
80410;BME280;69746;45.596;10.154;2023-06-26T08:05:29;99535.00;;;27.68;41.20
80410;BME280;69746;45.596;10.154;2023-06-26T08:07:55;99536.63;;;27.69;41.03
80410;BME280;69746;45.596;10.154;2023-06-26T08:10:21;99537.44;;;27.70;41.10
80410;BME280;69746;45.596;10.154;2023-06-26T08:12:46;99533.00;;;27.69;41.50
80410;BME280;69746;45.596;10.154;2023-06-26T08:15:14;99535.44;;;27.70;41.32
80410;BME280;69746;45.596;10.154;2023-06-26T08:17:39;99531.03;;;27.69;41.38
80410;BME280;69746;45.596;10.154;2023-06-26T08:20:06;99535.09;;;27.72;41.34
80410;BME280;69746;45.596;10.154;2023-06-26T08:22:34;99531.47;;;27.71;41.27
80410;BME280;69746;45.596;10.154;2023-06-26T08:24:59;99519.91;;;27.73;40.99
80410;BME280;69746;45.596;10.154;2023-06-26T08:27:25;99522.72;;;27.73;41.16
80410;BME280;69746;45.596;10.154;2023-06-26T08:29:54;99522.72;;;27.73;40.92
80410;BME280;69746;45.596;10.154;2023-06-26T08:32:20;99517.91;;;27.73;40.81
80410;BME280;69746;45.596;10.154;2023-06-26T08:34:46;99518.41;;;27.75;40.60
80410;BME280;69746;45.596;10.154;2023-06-26T08:37:11;99518.41;;;27.75;40.66
80410;BME280;69746;45.596;10.154;2023-06-26T08:39:37;99523.66;;;27.77;40.57
80410;BME280;69746;45.596;10.154;2023-06-26T08:42:04;99524.81;;;27.76;40.52
80410;BME280;69746;45.596;10.154;2023-06-26T08:44:29;99524.47;;;27.77;40.60
80410;BME280;69746;45.596;10.154;2023-06-26T08:46:55;99519.66;;;27.78;40.47
80410;BME280;69746;45.596;10.154;2023-06-26T08:49:29;99521.31;;;27.79;40.44
80410;BME280;69746;45.596;10.154;2023-06-26T08:52:02;99517.69;;;27.78;40.72
80410;BME280;69746;45.596;10.154;2023-06-26T08:54:36;99516.50;;;27.79;40.76
80410;BME280;69746;45.596;10.154;2023-06-26T08:57:06;99510.44;;;27.77;40.46
80410;BME280;69746;45.596;10.154;2023-06-26T08:59:33;99514.53;;;27.80;40.35
80410;BME280;69746;45.596;10.154;2023-06-26T09:01:59;99512.53;;;27.80;40.48
80410;BME280;69746;45.596;10.154;2023-06-26T09:04:26;99504.94;;;27.81;40.35
80410;BME280;69746;45.596;10.154;2023-06-26T09:06:52;99504.13;;;27.80;40.12
80410;BME280;69746;45.596;10.154;2023-06-26T09:09:19;99504.94;;;27.81;40.37
80410;BME280;69746;45.596;10.154;2023-06-26T09:11:45;99503.75;;;27.82;40.08
80410;BME280;69746;45.596;10.154;2023-06-26T09:14:13;99507.75;;;27.81;40.12
80410;BME280;69746;45.596;10.154;2023-06-26T09:16:40;99510.19;;;27.82;40.31
80410;BME280;69746;45.596;10.154;2023-06-26T09:19:11;99497.34;;;27.81;40.24
80410;BME280;69746;45.596;10.154;2023-06-26T09:21:41;99501.78;;;27.82;40.22
80410;BME280;69746;45.596;10.154;2023-06-26T09:24:09;99500.59;;;27.83;40.33
80410;BME280;69746;45.596;10.154;2023-06-26T09:26:35;99496.97;;;27.83;40.21
80410;BME280;69746;45.596;10.154;2023-06-26T09:29:05;99496.97;;;27.83;40.42
80410;BME280;69746;45.596;10.154;2023-06-26T09:31:35;99498.59;;;27.84;40.43
80410;BME280;69746;45.596;10.154;2023-06-26T09:34:02;99487.75;;;27.82;40.15
80410;BME280;69746;45.596;10.154;2023-06-26T09:36:32;99489.03;;;27.85;40.26
80410;BME280;69746;45.596;10.154;2023-06-26T09:39:01;99481.78;;;27.84;40.67
80410;BME280;69746;45.596;10.154;2023-06-26T09:41:28;99496.63;;;27.84;40.30
80410;BME280;69746;45.596;10.154;2023-06-26T09:43:54;99483.41;;;27.85;40.37
80410;BME280;69746;45.596;10.154;2023-06-26T09:48:49;99474.66;;;27.86;40.11
80410;BME280;69746;45.596;10.154;2023-06-26T09:51:16;99476.31;;;27.87;39.94
80410;BME280;69746;45.596;10.154;2023-06-26T09:53:48;99472.69;;;27.87;40.05
80410;BME280;69746;45.596;10.154;2023-06-26T09:56:17;99470.69;;;27.87;40.06
80410;BME280;69746;45.596;10.154;2023-06-26T09:58:44;99478.75;;;27.89;40.03
80410;BME280;69746;45.596;10.154;2023-06-26T10:01:10;99467.53;;;27.89;39.94
80410;BME280;69746;45.596;10.154;2023-06-26T10:03:36;99465.53;;;27.89;40.00
80410;BME280;69746;45.596;10.154;2023-06-26T10:06:02;99472.78;;;27.90;39.85
80410;BME280;69746;45.596;10.154;2023-06-26T10:08:29;99462.38;;;27.91;40.04
80410;BME280;69746;45.596;10.154;2023-06-26T10:10:56;99468.81;;;27.91;39.91
80410;BME280;69746;45.596;10.154;2023-06-26T10:13:27;99464.00;;;27.92;39.95
80410;BME280;69746;45.596;10.154;2023-06-26T10:15:59;99462.00;;;27.92;39.86
80410;BME280;69746;45.596;10.154;2023-06-26T10:18:28;99467.63;;;27.92;39.47
80410;BME280;69746;45.596;10.154;2023-06-26T10:20:57;99458.41;;;27.92;39.62
80410;BME280;69746;45.596;10.154;2023-06-26T10:23:23;99454.41;;;27.93;39.60
80410;BME280;69746;45.596;10.154;2023-06-26T10:25:55;99452.44;;;27.94;39.40
80410;BME280;69746;45.596;10.154;2023-06-26T10:28:26;99456.84;;;27.95;39.33
80410;BME280;69746;45.596;10.154;2023-06-26T10:30:56;99454.41;;;27.93;39.61
80410;BME280;69746;45.596;10.154;2023-06-26T10:33:24;99452.06;;;27.95;39.69
80410;BME280;69746;45.596;10.154;2023-06-26T10:35:53;99450.06;;;27.96;39.72
80410;BME280;69746;45.596;10.154;2023-06-26T10:38:18;99445.28;;;27.96;39.74
80410;BME280;69746;45.596;10.154;2023-06-26T10:40:48;99448.09;;;27.96;39.73
80410;BME280;69746;45.596;10.154;2023-06-26T10:43:15;99450.06;;;27.96;39.85
80410;BME280;69746;45.596;10.154;2023-06-26T10:45:49;99454.50;;;27.97;39.83
80410;BME280;69746;45.596;10.154;2023-06-26T10:48:19;99451.34;;;27.98;39.98
80410;BME280;69746;45.596;10.154;2023-06-26T10:50:47;99442.47;;;27.96;39.67
80410;BME280;69746;45.596;10.154;2023-06-26T10:56:02;99443.28;;;27.97;39.90
80410;BME280;69746;45.596;10.154;2023-06-26T11:03:43;99438.94;;;27.99;39.72
80410;BME280;69746;45.596;10.154;2023-06-26T11:06:11;99438.13;;;27.99;39.66
80410;BME280;69746;45.596;10.154;2023-06-26T11:08:48;99438.13;;;27.99;39.78
80410;BME280;69746;45.596;10.154;2023-06-26T11:11:17;99444.56;;;27.99;39.77
80410;BME280;69746;45.596;10.154;2023-06-26T11:13:50;99440.59;;;28.00;39.75
80410;BME280;69746;45.596;10.154;2023-06-26T11:16:16;99445.03;;;28.01;39.59
80410;BME280;69746;45.596;10.154;2023-06-26T11:18:42;99438.63;;;28.01;39.70
80410;BME280;69746;45.596;10.154;2023-06-26T11:21:10;99437.44;;;28.02;39.68
80410;BME280;69746;45.596;10.154;2023-06-26T11:23:40;99441.88;;;28.03;39.51
80410;BME280;69746;45.596;10.154;2023-06-26T11:26:19;99430.66;;;28.03;39.52
80410;BME280;69746;45.596;10.154;2023-06-26T11:28:54;99436.72;;;28.05;39.45
80410;BME280;69746;45.596;10.154;2023-06-26T11:31:27;99434.72;;;28.05;39.31
80410;BME280;69746;45.596;10.154;2023-06-26T11:33:57;99440.31;;;28.05;39.40
80410;BME280;69746;45.596;10.154;2023-06-26T11:36:27;99435.91;;;28.04;39.50
80410;BME280;69746;45.596;10.154;2023-06-26T11:38:56;99445.94;;;28.05;39.49
80410;BME280;69746;45.596;10.154;2023-06-26T11:41:24;99440.31;;;28.05;39.40
80410;BME280;69746;45.596;10.154;2023-06-26T11:43:51;99435.91;;;28.04;39.67
80410;BME280;69746;45.596;10.154;2023-06-26T11:46:19;99435.53;;;28.06;39.55
80410;BME280;69746;45.596;10.154;2023-06-26T11:48:49;99434.34;;;28.07;39.48
80410;BME280;69746;45.596;10.154;2023-06-26T11:51:15;99427.94;;;28.06;39.16
80410;BME280;69746;45.596;10.154;2023-06-26T11:53:46;99426.75;;;28.07;39.33
80410;BME280;69746;45.596;10.154;2023-06-26T11:56:14;99428.31;;;28.05;39.23
80410;BME280;69746;45.596;10.154;2023-06-26T12:01:22;99429.94;;;28.06;39.47
80410;BME280;69746;45.596;10.154;2023-06-26T12:03:49;99419.88;;;28.05;39.62
80410;BME280;69746;45.596;10.154;2023-06-26T12:06:16;99427.13;;;28.06;39.63
80410;BME280;69746;45.596;10.154;2023-06-26T12:08:42;99426.31;;;28.05;39.28
80410;BME280;69746;45.596;10.154;2023-06-26T12:11:09;99420.34;;;28.07;39.25
80410;BME280;69746;45.596;10.154;2023-06-26T12:13:36;99424.78;;;28.08;39.33
80410;BME280;69746;45.596;10.154;2023-06-26T12:16:02;99417.16;;;28.08;39.23
80410;BME280;69746;45.596;10.154;2023-06-26T12:18:37;99416.81;;;28.10;39.25
80410;BME280;69746;45.596;10.154;2023-06-26T12:21:03;99417.97;;;28.09;39.38
80410;BME280;69746;45.596;10.154;2023-06-26T12:23:39;99418.78;;;28.09;39.21
80410;BME280;69746;45.596;10.154;2023-06-26T12:26:20;99401.53;;;28.07;39.25
80410;BME280;69746;45.596;10.154;2023-06-26T12:28:49;99403.16;;;28.08;39.15
80410;BME280;69746;45.596;10.154;2023-06-26T12:31:15;99406.75;;;28.09;39.29
80410;BME280;69746;45.596;10.154;2023-06-26T12:33:43;99403.16;;;28.08;39.14
80410;BME280;69746;45.596;10.154;2023-06-26T12:36:13;99410.84;;;28.11;39.11
80410;BME280;69746;45.596;10.154;2023-06-26T12:38:41;99410.84;;;28.11;39.06
80410;BME280;69746;45.596;10.154;2023-06-26T12:41:13;99414.44;;;28.12;39.21
80410;BME280;69746;45.596;10.154;2023-06-26T12:43:41;99406.03;;;28.12;39.20
80410;BME280;69746;45.596;10.154;2023-06-26T12:46:08;99409.22;;;28.10;39.06
80410;BME280;69746;45.596;10.154;2023-06-26T12:48:40;99415.25;;;28.12;38.96
80410;BME280;69746;45.596;10.154;2023-06-26T12:51:11;99398.44;;;28.12;39.15
80410;BME280;69746;45.596;10.154;2023-06-26T12:53:38;99400.09;;;28.13;38.84
80410;BME280;69746;45.596;10.154;2023-06-26T12:56:07;99398.09;;;28.14;38.86
80410;BME280;69746;45.596;10.154;2023-06-26T12:58:34;99396.47;;;28.13;39.06
80410;BME280;69746;45.596;10.154;2023-06-26T13:01:04;99400.91;;;28.14;39.14
80410;BME280;69746;45.596;10.154;2023-06-26T13:03:31;99390.88;;;28.13;39.04
80410;BME280;69746;45.596;10.154;2023-06-26T13:05:57;99388.50;;;28.15;38.82
80410;BME280;69746;45.596;10.154;2023-06-26T13:08:23;99382.09;;;28.14;38.95
80410;BME280;69746;45.596;10.154;2023-06-26T13:10:49;99382.53;;;28.16;38.99